Urakawa, Japan

10:44 AM JST on August 28, 2014 (GMT +0900)
Obihiro | Change Station
CLOSE
Current Station
Airport
Location: Obihiro,
Elevation: 489 ft
Nearby Weather Stations

Elev 489 ft 42.73 °N, 143.22 °E | Updated 44 minutes ago

Partly Cloudy
Partly Cloudy
68 °F
Feels Like 68 °F
N
6
Wind Variable Wind from NNE

Today
High -- | Low -- °F
--% Chance of Precip.
Yesterday
High -- | Low -- °F
Precip. -- in
4:49 AM 6:10 PM
Waxing Crescent, 6% visible
Pressure 30.04 in
Visibility 6.2 miles
Clouds Few 4000 ft
Dew Point 50 °F
Humidity 52%
Rainfall 0.00 in
Snow Depth Not available.
UV 6 out of 12
Pollen Not available.
Air Quality Not available.
Flu Activity Not available.
METAR RJCB 280100Z 02005KT 300V060 9999 FEW040 20/10 Q1017

More Conditions Fewer Conditions

Pressure 30.04 in
Visibility 6.2 miles
Clouds Few 4000 ft
Dew Point 50 °F
Humidity 52%
Rainfall 0.00 in
Snow Depth Not available.
UV 6 out of 12
Pollen Not available.
Air Quality Not available.
Flu Activity Not available.
METAR RJCB 280100Z 02005KT 300V060 9999 FEW040 20/10 Q1017

More Conditions Fewer Conditions

10-Day Weather Forecast

Almanac

Astronomy

Aug. 28, 2014 Rise Set
Actual Time 4:49 AM JST 6:10 PM JST
Civil Twilight 4:20 AM JST 6:39 PM JST
Nautical Twilight 3:45 AM JST 7:14 PM JST
Astronomical Twilight 3:08 AM JST 7:51 PM JST
Moon 7:08 AM JST 7:09 PM JST
Length of Visible Light 14h 19m
Length of Day
13h 20m
Tomorrow will be 2m 41s shorter.
Waxing Crescent, 6% of the Moon is Illuminated
Aug 27
Waxing Crescent
Sep 2
First Quarter
Sep 8
Full
Sep 15
Last Quarter
Sep 24
New

Yesterday's Extremes

Country Highs Country Lows

Community

WunderPhotos

Upload Photos

1,747,855 photos uploaded!

Nearby

Snow Depth

Not available.

Earthquake Activity

City Distance Mag. Time & Date
No recent earthquake activity has been reported nearby.
Minimum magnitude displayed is 2.5.

Coastal Water Temperatures

Place Temperature
No Stations Reporting

Nearby Weather Stations